Time;durP1;ratioP1;P1;durP2;ratioP2;P2;SDS_P1;SDS_P2;PMS_P1;PMS_P2;Temp;Humidity;BMP_temperature;BMP_pressure;BME280_temperature;BME280_humidity;BME280_pressure;Samples;Min_cycle;Max_cycle;Signal;HPM_P1;HPM_P2
2022/08/30 06:02:30;;;;;;;;;;;;;;;19.04;54.63;100070.88;1072749;54;26577;-77
2022/08/30 06:03:32;;;;;;;;;;;;;;;18.92;55.00;100065.16;1086203;54;19958;-77
2022/08/30 06:04:36;;;;;;;;;;;;;;;18.94;55.15;100065.81;1086780;54;20506;-77
2022/08/30 06:05:37;;;;;;;;;;;;;;;18.93;55.03;100064.16;1086901;54;19938;-79
2022/08/30 06:06:41;;;;;;;;;;;;;;;18.86;55.33;100064.94;1086797;54;19974;-76
2022/08/30 06:07:43;;;;;;;;;;;;;;;18.89;54.95;100062.88;1086836;54;19974;-76
2022/08/30 06:08:47;;;;;;;;;;;;;;;18.85;55.39;100070.53;1086886;54;19974;-78
2022/08/30 06:09:48;;;;;;;;;;;;;;;18.84;55.43;100074.28;1086637;54;19954;-76
2022/08/30 06:10:52;;;;;;;;;;;;;;;18.86;55.41;100073.06;1086876;54;19989;-76
2022/08/30 06:11:54;;;;;;;;;;;;;;;18.84;55.55;100077.00;1086455;54;19953;-79
2022/08/30 06:12:57;;;;;;;;;;;;;;;18.83;55.69;100076.16;1087074;54;19946;-76
2022/08/30 06:13:59;;;;;;;;;;;;;;;18.77;55.44;100087.78;1086033;54;19954;-77
2022/08/30 06:15:03;;;;;;;;;;;;;;;18.80;55.41;100081.94;1086620;54;19998;-79
2022/08/30 06:16:04;;;;;;;;;;;;;;;18.81;55.91;100078.22;1086343;54;19977;-77
2022/08/30 06:17:09;;;;;;;;;;;;;;;18.79;55.74;100083.00;1085832;54;19951;-78
2022/08/30 06:18:16;;;;;;;;;;;;;;;18.79;55.88;100084.88;1085789;54;20014;-77
2022/08/30 06:19:18;;;;;;;;;;;;;;;18.81;55.69;100089.03;1085294;54;19958;-78
2022/08/30 06:20:21;;;;;;;;;;;;;;;18.82;55.87;100088.00;1084679;54;20417;-77
2022/08/30 06:21:23;;;;;;;;;;;;;;;18.85;55.78;100078.66;1085560;54;19947;-78
2022/08/30 06:22:27;;;;;;;;;;;;;;;18.88;56.05;100088.28;1085453;54;20006;-77
2022/08/30 06:23:29;;;;;;;;;;;;;;;18.90;55.87;100086.19;1085578;54;19962;-79
2022/08/30 06:24:35;;;;;;;;;;;;;;;18.94;55.51;100087.50;1086063;54;19951;-78
2022/08/30 06:25:36;;;;;;;;;;;;;;;18.99;55.82;100090.44;1086350;54;19970;-79
2022/08/30 06:26:42;;;;;;;;;;;;;;;19.02;55.85;100079.22;1086147;54;19962;-77
2022/08/30 06:27:43;;;;;;;;;;;;;;;19.04;55.62;100082.56;1085758;54;20440;-78
2022/08/30 06:28:48;;;;;;;;;;;;;;;19.11;55.43;100082.59;1085279;54;19951;-79
2022/08/30 06:29:49;;;;;;;;;;;;;;;19.11;55.56;100078.00;1085597;54;19977;-77
2022/08/30 06:30:53;;;;;;;;;;;;;;;19.12;55.47;100076.16;1085311;54;20449;-77
2022/08/30 06:31:55;;;;;;;;;;;;;;;19.13;55.59;100073.22;1085649;54;19974;-77
2022/08/30 06:32:59;;;;;;;;;;;;;;;19.23;55.27;100080.16;1086476;54;19971;-78
2022/08/30 06:34:03;;;;;;;;;;;;;;;19.23;55.07;100064.72;1085996;54;19979;-78
2022/08/30 06:35:08;;;;;;;;;;;;;;;19.30;55.10;100070.19;1084914;54;20443;-78
2022/08/30 06:36:10;;;;;;;;;;;;;;;19.36;54.89;100061.25;1083285;54;19958;-76
2022/08/30 06:37:14;;;;;;;;;;;;;;;19.42;54.87;100071.28;1079698;54;19947;-76
2022/08/30 06:38:15;;;;;;;;;;;;;;;19.47;54.50;100068.78;1083038;54;19946;-78
2022/08/30 06:39:19;;;;;;;;;;;;;;;19.53;54.35;100069.84;1082530;54;20069;-76
2022/08/30 06:40:21;;;;;;;;;;;;;;;19.59;54.31;100069.06;1082555;54;19950;-76
2022/08/30 06:41:26;;;;;;;;;;;;;;;19.52;54.56;100067.34;1082517;54;19953;-77
2022/08/30 06:42:32;;;;;;;;;;;;;;;19.47;54.55;100066.06;1082205;54;19977;-77
2022/08/30 06:43:33;;;;;;;;;;;;;;;19.45;54.35;100062.75;1083233;54;19950;-77
2022/08/30 06:44:38;;;;;;;;;;;;;;;19.43;54.67;100066.69;1083488;54;20030;-77
2022/08/30 06:45:39;;;;;;;;;;;;;;;19.51;54.21;100068.38;1083548;54;19945;-77
2022/08/30 06:46:43;;;;;;;;;;;;;;;19.54;54.75;100065.28;1083411;54;19946;-77
2022/08/30 06:47:46;;;;;;;;;;;;;;;19.60;54.27;100064.47;1083575;54;19946;-76
2022/08/30 06:48:48;;;;;;;;;;;;;;;19.65;54.25;100064.66;1083343;54;19951;-77
2022/08/30 06:49:54;;;;;;;;;;;;;;;19.73;54.26;100064.50;1083413;54;20030;-78
2022/08/30 06:50:58;;;;;;;;;;;;;;;19.75;54.33;100065.13;1083632;54;19986;-77
2022/08/30 06:52:02;;;;;;;;;;;;;;;19.73;53.80;100072.66;1084252;54;20784;-77
2022/08/30 06:53:05;;;;;;;;;;;;;;;19.73;54.07;100075.34;1084984;47;20425;-78
2022/08/30 06:54:07;;;;;;;;;;;;;;;19.72;54.17;100068.25;1085038;54;20452;-77
2022/08/30 06:55:12;;;;;;;;;;;;;;;19.75;53.98;100070.53;1085088;54;19954;-78
2022/08/30 06:56:13;;;;;;;;;;;;;;;19.82;54.29;100072.44;1084611;54;19945;-78
2022/08/30 06:57:17;;;;;;;;;;;;;;;19.86;53.94;100069.16;1084532;39;20349;-77
2022/08/30 06:58:18;;;;;;;;;;;;;;;19.88;54.26;100067.06;1083776;54;19947;-78
2022/08/30 06:59:22;;;;;;;;;;;;;;;19.85;53.99;100062.06;1084065;54;19957;-77
2022/08/30 07:00:23;;;;;;;;;;;;;;;19.86;53.91;100060.16;1083715;54;20480;-77
2022/08/30 07:01:29;;;;;;;;;;;;;;;19.85;54.18;100063.88;1083845;54;19958;-77
2022/08/30 07:02:30;;;;;;;;;;;;;;;19.94;54.06;100065.38;1083733;46;19947;-77
2022/08/30 07:03:34;;;;;;;;;;;;;;;19.96;53.75;100063.31;1083749;54;19976;-78
2022/08/30 07:04:35;;;;;;;;;;;;;;;20.01;53.79;100065.41;1083829;39;20357;-77
2022/08/30 07:05:41;;;;;;;;;;;;;;;20.12;53.62;100069.41;1083825;54;19970;-78
2022/08/30 07:06:42;;;;;;;;;;;;;;;20.22;53.34;100067.09;1084028;54;19947;-77
2022/08/30 07:07:46;;;;;;;;;;;;;;;20.25;53.25;100070.25;1083558;54;19946;-77
2022/08/30 07:08:51;;;;;;;;;;;;;;;20.34;53.11;100065.44;1083879;54;19954;-77
2022/08/30 07:09:52;;;;;;;;;;;;;;;20.45;52.72;100069.38;1083554;54;19985;-77
2022/08/30 07:10:56;;;;;;;;;;;;;;;20.42;53.17;100070.66;1083783;54;19946;-77
2022/08/30 07:12:00;;;;;;;;;;;;;;;20.36;52.52;100068.78;1083670;54;19981;-76
2022/08/30 07:13:04;;;;;;;;;;;;;;;20.43;52.96;100066.06;1083720;54;19973;-77
2022/08/30 07:14:08;;;;;;;;;;;;;;;20.45;52.49;100060.44;1083868;54;19958;-76
2022/08/30 07:15:10;;;;;;;;;;;;;;;20.50;52.47;100068.78;1083454;54;19953;-77
2022/08/30 07:16:15;;;;;;;;;;;;;;;20.46;52.35;100062.91;1083619;54;19973;-77
2022/08/30 07:19:51;;;;;;;;;;;;;;;20.68;51.95;100066.25;1083577;54;19952;-78
2022/08/30 07:20:55;;;;;;;;;;;;;;;20.70;52.09;100057.91;1083584;54;19946;-77
2022/08/30 07:21:58;;;;;;;;;;;;;;;20.73;52.41;100062.91;1083879;54;19970;-78
2022/08/30 07:22:59;;;;;;;;;;;;;;;20.81;52.16;100061.88;1083878;54;19973;-79
2022/08/30 07:24:04;;;;;;;;;;;;;;;20.87;52.07;100063.75;1084358;54;20035;-78
2022/08/30 07:25:05;;;;;;;;;;;;;;;20.92;52.15;100055.78;1085157;54;19950;-78
2022/08/30 07:26:10;;;;;;;;;;;;;;;20.97;51.80;100060.59;1085845;54;19951;-77
2022/08/30 07:27:12;;;;;;;;;;;;;;;20.97;52.09;100058.69;1085522;54;20747;-78
2022/08/30 07:28:16;;;;;;;;;;;;;;;21.04;51.84;100059.53;1085843;54;19946;-78
2022/08/30 07:29:20;;;;;;;;;;;;;;;21.10;51.61;100062.44;1085926;54;19958;-79
2022/08/30 07:30:21;;;;;;;;;;;;;;;21.15;51.44;100065.34;1085969;54;20535;-78
2022/08/30 07:31:26;;;;;;;;;;;;;;;21.20;51.61;100068.25;1085593;39;20419;-76
2022/08/30 07:32:27;;;;;;;;;;;;;;;21.28;51.18;100068.00;1083843;54;19966;-75
2022/08/30 07:33:31;;;;;;;;;;;;;;;21.29;51.17;100068.84;1084535;54;19973;-78
2022/08/30 07:34:35;;;;;;;;;;;;;;;21.33;51.27;100064.63;1084614;54;19954;-79
2022/08/30 07:35:36;;;;;;;;;;;;;;;21.34;51.40;100064.44;1084833;54;20476;-80
2022/08/30 07:36:42;;;;;;;;;;;;;;;21.42;51.12;100068.78;1084739;54;19962;-76
2022/08/30 07:37:44;;;;;;;;;;;;;;;21.53;51.10;100067.28;1084508;54;19958;-77
2022/08/30 07:38:48;;;;;;;;;;;;;;;21.64;50.82;100065.78;1084978;54;19981;-77
2022/08/30 07:39:50;;;;;;;;;;;;;;;21.77;50.89;100070.31;1085519;39;20317;-77
2022/08/30 07:40:53;;;;;;;;;;;;;;;21.87;50.28;100069.88;1085361;54;19954;-77
2022/08/30 07:41:55;;;;;;;;;;;;;;;22.00;49.90;100066.22;1084837;54;19947;-78
2022/08/30 07:43:00;;;;;;;;;;;;;;;22.09;49.59;100065.72;1084392;54;19985;-77
2022/08/30 07:44:02;;;;;;;;;;;;;;;22.24;49.36;100062.66;1085027;54;19970;-79
2022/08/30 07:45:07;;;;;;;;;;;;;;;22.34;48.88;100061.34;1084709;54;19946;-77
2022/08/30 07:46:08;;;;;;;;;;;;;;;22.46;48.72;100054.16;1086021;54;19946;-78
2022/08/30 07:47:12;;;;;;;;;;;;;;;22.65;48.67;100056.91;1085336;54;19951;-77
2022/08/30 07:48:14;;;;;;;;;;;;;;;22.75;47.97;100059.97;1085192;54;20475;-78
2022/08/30 07:49:18;;;;;;;;;;;;;;;22.84;47.96;100060.47;1085089;54;19975;-77
2022/08/30 07:50:21;;;;;;;;;;;;;;;22.84;47.99;100061.34;1087801;39;20479;-77
2022/08/30 07:51:26;;;;;;;;;;;;;;;22.94;47.35;100066.25;1086366;54;19946;-78
2022/08/30 07:52:30;;;;;;;;;;;;;;;22.99;47.61;100060.13;1085688;54;19946;-78
2022/08/30 07:53:34;;;;;;;;;;;;;;;23.09;47.50;100057.69;1086897;39;20356;-79
2022/08/30 07:54:38;;;;;;;;;;;;;;;23.19;47.44;100059.94;1085291;54;19951;-79
2022/08/30 07:55:39;;;;;;;;;;;;;;;23.30;47.09;100069.25;1086957;54;19947;-77
2022/08/30 07:56:43;;;;;;;;;;;;;;;23.37;46.59;100059.06;1085109;54;19958;-78
2022/08/30 07:57:44;;;;;;;;;;;;;;;23.45;46.76;100064.22;1085537;46;19957;-77
2022/08/30 07:58:48;;;;;;;;;;;;;;;23.49;46.92;100061.84;1084713;47;20026;-76
2022/08/30 07:59:50;;;;;;;;;;;;;;;23.56;46.30;100057.16;1083687;54;19950;-79
2022/08/30 08:00:53;;;;;;;;;;;;;;;23.66;46.51;100068.31;1085313;54;19950;-77
2022/08/30 08:01:55;;;;;;;;;;;;;;;23.71;46.15;100064.91;1087307;39;20317;-78
2022/08/30 08:02:58;;;;;;;;;;;;;;;23.88;46.18;100065.09;1086183;54;19947;-78
2022/08/30 08:04:03;;;;;;;;;;;;;;;23.94;46.16;100063.34;1084956;54;20460;-77
2022/08/30 08:05:07;;;;;;;;;;;;;;;24.09;45.56;100065.66;1088320;39;20438;-77
2022/08/30 08:06:12;;;;;;;;;;;;;;;24.13;45.43;100066.88;1085525;54;19982;-77
2022/08/30 08:07:13;;;;;;;;;;;;;;;24.31;45.16;100063.19;1084845;54;19947;-77
2022/08/30 08:08:21;;;;;;;;;;;;;;;24.41;45.18;100063.44;1085254;54;19943;-77
2022/08/30 08:09:25;;;;;;;;;;;;;;;24.10;44.48;100062.69;1085717;39;20440;-78
2022/08/30 08:10:26;;;;;;;;;;;;;;;24.26;44.88;100071.28;1085260;54;19977;-76
2022/08/30 08:11:30;;;;;;;;;;;;;;;24.35;44.28;100058.94;1084499;54;19974;-78
2022/08/30 08:12:32;;;;;;;;;;;;;;;24.53;44.10;100065.38;1084589;54;19954;-77
2022/08/30 08:13:36;;;;;;;;;;;;;;;24.65;44.33;100058.00;1084847;39;20371;-78
2022/08/30 08:14:38;;;;;;;;;;;;;;;24.77;43.93;100068.97;1084551;54;20002;-76
2022/08/30 08:15:42;;;;;;;;;;;;;;;24.84;43.52;100057.91;1084497;54;19939;-78
2022/08/30 08:16:47;;;;;;;;;;;;;;;24.91;43.30;100066.81;1084726;54;19947;-77
2022/08/30 08:17:48;;;;;;;;;;;;;;;25.00;42.78;100068.09;1083926;54;19946;-76
2022/08/30 08:18:52;;;;;;;;;;;;;;;24.95;43.00;100065.25;1083834;54;19966;-78
2022/08/30 08:19:53;;;;;;;;;;;;;;;24.77;42.72;100061.56;1084089;54;19962;-77
2022/08/30 08:20:57;;;;;;;;;;;;;;;25.03;43.06;100058.59;1085548;54;19947;-78
2022/08/30 08:21:59;;;;;;;;;;;;;;;25.14;43.01;100054.16;1086284;54;19946;-76
2022/08/30 08:23:03;;;;;;;;;;;;;;;25.25;42.76;100050.56;1084926;54;19973;-77
2022/08/30 08:24:10;;;;;;;;;;;;;;;25.33;42.57;100052.91;1085245;54;19973;-77
2022/08/30 08:25:11;;;;;;;;;;;;;;;25.49;42.07;100051.34;1084813;54;19966;-78
2022/08/30 08:26:15;;;;;;;;;;;;;;;25.35;41.80;100050.78;1086656;46;20519;-79
2022/08/30 08:27:16;;;;;;;;;;;;;;;25.25;42.02;100050.56;1085565;46;19957;-77
2022/08/30 08:28:20;;;;;;;;;;;;;;;25.32;42.41;100051.25;1085794;54;19982;-79
2022/08/30 08:29:25;;;;;;;;;;;;;;;25.19;41.77;100054.28;1085644;54;20512;-77
2022/08/30 08:30:29;;;;;;;;;;;;;;;25.08;41.97;100056.78;1087420;46;19951;-80
2022/08/30 08:31:30;;;;;;;;;;;;;;;25.17;42.46;100040.84;1085004;39;20582;-80
2022/08/30 08:32:34;;;;;;;;;;;;;;;25.18;42.47;100050.69;1084406;54;19951;-77
2022/08/30 08:33:36;;;;;;;;;;;;;;;25.32;42.49;100044.97;1086414;54;19946;-79
2022/08/30 08:34:40;;;;;;;;;;;;;;;25.43;42.37;100048.75;1084991;54;20019;-77
2022/08/30 08:35:41;;;;;;;;;;;;;;;25.56;42.11;100053.09;1085866;54;20058;-76
2022/08/30 08:36:47;;;;;;;;;;;;;;;25.58;42.03;100048.22;1085356;54;19962;-78
2022/08/30 08:37:48;;;;;;;;;;;;;;;25.66;42.08;100043.19;1084544;54;19939;-78
2022/08/30 08:38:52;;;;;;;;;;;;;;;25.87;41.86;100045.47;1085241;54;19950;-79
2022/08/30 08:39:56;;;;;;;;;;;;;;;26.01;41.42;100042.16;1085508;54;19950;-79
2022/08/30 08:41:05;;;;;;;;;;;;;;;26.07;41.25;100045.00;1085352;54;20047;-76
2022/08/30 08:42:14;;;;;;;;;;;;;;;25.81;40.91;100039.06;1084203;54;19969;-78
2022/08/30 08:43:19;;;;;;;;;;;;;;;25.89;41.37;100037.84;1084236;54;20667;-79
2022/08/30 08:44:28;;;;;;;;;;;;;;;26.04;41.01;100046.31;1084569;54;19946;-78
2022/08/30 08:45:38;;;;;;;;;;;;;;;26.23;40.88;100044.22;1086428;39;19994;-79
2022/08/30 08:46:45;;;;;;;;;;;;;;;26.37;40.87;100032.91;1084883;54;19947;-79
2022/08/30 08:47:56;;;;;;;;;;;;;;;26.37;40.67;100030.16;1084509;54;20650;-79
2022/08/30 08:49:00;;;;;;;;;;;;;;;26.26;40.29;100032.72;1084218;54;19951;-79
2022/08/30 08:50:05;;;;;;;;;;;;;;;26.20;40.60;100036.47;1084060;54;19958;-79
2022/08/30 08:53:47;;;;;;;;;;;;;;;26.34;41.04;100033.41;1084080;54;19942;-80
2022/08/30 08:54:55;;;;;;;;;;;;;;;26.40;40.95;100033.22;1084144;54;19947;-79
2022/08/30 08:55:58;;;;;;;;;;;;;;;26.36;40.22;100025.75;1084131;54;19946;-76
2022/08/30 08:57:02;;;;;;;;;;;;;;;26.33;40.70;100035.31;1083757;54;20481;-79
2022/08/30 08:58:03;;;;;;;;;;;;;;;26.45;41.06;100027.84;1084417;39;20310;-78
2022/08/30 08:59:10;;;;;;;;;;;;;;;26.47;40.74;100028.41;1084316;54;19954;-79
2022/08/30 09:00:12;;;;;;;;;;;;;;;26.59;40.88;100028.31;1083862;54;20515;-79
2022/08/30 09:01:17;;;;;;;;;;;;;;;26.69;40.62;100029.53;1084315;54;19970;-77
2022/08/30 09:02:22;;;;;;;;;;;;;;;26.37;40.29;100030.16;1084336;54;19946;-80
2022/08/30 09:03:27;;;;;;;;;;;;;;;26.37;40.75;100028.25;1083830;54;20050;-79
2022/08/30 09:04:34;;;;;;;;;;;;;;;26.55;40.82;100021.66;1084123;54;20481;-79
2022/08/30 09:05:38;;;;;;;;;;;;;;;26.79;40.35;100032.47;1084309;54;20516;-77
2022/08/30 09:06:52;;;;;;;;;;;;;;;27.04;40.37;100025.63;1083378;54;20697;-79
2022/08/30 09:07:56;;;;;;;;;;;;;;;27.30;40.15;100023.22;1083879;54;19938;-79
2022/08/30 09:09:00;;;;;;;;;;;;;;;27.47;39.69;100021.25;1083214;54;19947;-78
2022/08/30 09:10:04;;;;;;;;;;;;;;;27.66;39.41;100026.38;1083877;54;19954;-78
2022/08/30 09:11:15;;;;;;;;;;;;;;;27.79;38.94;100020.44;1084858;54;19951;-80
2022/08/30 09:12:19;;;;;;;;;;;;;;;27.85;38.86;100013.09;1072987;54;19954;-79
2022/08/30 09:13:20;;;;;;;;;;;;;;;27.88;38.88;100015.31;1083798;54;19954;-78
2022/08/30 09:14:26;;;;;;;;;;;;;;;27.97;38.60;100018.41;1083430;54;19950;-78
2022/08/30 09:15:28;;;;;;;;;;;;;;;28.04;38.16;100016.28;1084239;39;20337;-80
2022/08/30 09:16:47;;;;;;;;;;;;;;;28.12;38.13;100024.06;1083537;54;20015;-79
2022/08/30 09:17:53;;;;;;;;;;;;;;;28.24;38.22;100020.31;1083295;54;19970;-77
2022/08/30 09:18:54;;;;;;;;;;;;;;;28.36;37.86;100012.69;1084380;39;20669;-79
2022/08/30 09:20:01;;;;;;;;;;;;;;;28.33;38.24;100018.75;1084245;54;19953;-78
2022/08/30 09:21:05;;;;;;;;;;;;;;;28.52;37.81;100010.88;1084253;39;20369;-79
2022/08/30 09:22:25;;;;;;;;;;;;;;;28.64;37.67;100007.91;1084288;54;19946;-77
2022/08/30 09:23:31;;;;;;;;;;;;;;;28.75;37.90;100004.16;1084169;54;19950;-77
2022/08/30 09:24:36;;;;;;;;;;;;;;;28.91;37.60;100005.06;1084396;54;20993;-78
2022/08/30 09:25:39;;;;;;;;;;;;;;;28.99;37.51;100003.75;1084884;39;20245;-77
2022/08/30 09:26:43;;;;;;;;;;;;;;;29.17;37.43;100007.09;1084188;46;19946;-79
2022/08/30 09:27:48;;;;;;;;;;;;;;;29.02;36.53;100003.19;1083877;54;20050;-79
2022/08/30 09:28:50;;;;;;;;;;;;;;;28.99;36.94;100003.75;1084491;39;20006;-76
2022/08/30 09:29:55;;;;;;;;;;;;;;;29.08;36.50;100002.13;1083926;54;20257;-79
2022/08/30 09:30:59;;;;;;;;;;;;;;;29.20;36.52;99996.38;1083524;47;19974;-77
2022/08/30 09:32:03;;;;;;;;;;;;;;;29.26;36.07;99991.72;1083623;54;19954;-77
2022/08/30 09:33:07;;;;;;;;;;;;;;;28.88;36.21;99991.03;1083266;54;20681;-79
2022/08/30 09:34:15;;;;;;;;;;;;;;;28.66;36.72;100000.25;1082806;54;19958;-78
2022/08/30 09:35:20;;;;;;;;;;;;;;;28.66;37.05;99992.00;1082957;54;19970;-77
2022/08/30 09:36:24;;;;;;;;;;;;;;;28.95;36.98;99999.88;1082697;54;19947;-78
2022/08/30 09:37:37;;;;;;;;;;;;;;;28.92;36.87;99992.97;1083497;54;19957;-78
2022/08/30 09:38:41;;;;;;;;;;;;;;;29.09;36.65;99987.28;1084916;39;20706;-79
2022/08/30 09:39:43;;;;;;;;;;;;;;;29.32;36.58;99985.16;1082827;54;19981;-78
2022/08/30 09:40:48;;;;;;;;;;;;;;;29.33;36.12;99981.31;1083563;54;20460;-78
2022/08/30 09:41:53;;;;;;;;;;;;;;;29.41;36.32;99986.28;1084947;39;20407;-78
2022/08/30 09:43:04;;;;;;;;;;;;;;;29.57;35.91;99989.03;1085404;54;19950;-80
2022/08/30 09:44:07;;;;;;;;;;;;;;;29.56;35.72;99981.91;1083515;54;19947;-78
2022/08/30 09:45:21;;;;;;;;;;;;;;;29.44;35.10;99975.81;1084039;54;19946;-79
2022/08/30 09:46:23;;;;;;;;;;;;;;;29.29;35.58;99982.91;1085573;31;20432;-77
2022/08/30 09:47:30;;;;;;;;;;;;;;;29.15;35.90;99974.34;1085418;54;19974;-79
2022/08/30 09:48:33;;;;;;;;;;;;;;;29.31;36.00;99977.16;1085840;46;19958;-79
2022/08/30 09:49:39;;;;;;;;;;;;;;;29.37;36.21;99971.41;1086160;46;19973;-77
2022/08/30 09:50:40;;;;;;;;;;;;;;;29.25;35.49;99974.38;1087180;54;20018;-76
2022/08/30 09:51:51;;;;;;;;;;;;;;;29.14;35.95;99969.13;1087080;54;19958;-78
2022/08/30 09:53:01;;;;;;;;;;;;;;;29.28;36.02;99967.50;1085111;54;19946;-79
2022/08/30 09:54:06;;;;;;;;;;;;;;;29.56;35.96;99968.16;1084662;54;19973;-76
2022/08/30 09:55:16;;;;;;;;;;;;;;;29.51;34.83;99959.88;1086406;54;19998;-78
2022/08/30 09:56:19;;;;;;;;;;;;;;;29.24;34.66;99966.38;1086597;54;19950;-79
2022/08/30 09:57:36;;;;;;;;;;;;;;;29.24;35.15;99958.94;1083043;54;20006;-76
2022/08/30 09:58:44;;;;;;;;;;;;;;;29.34;35.07;99958.19;1087001;54;19938;-77
2022/08/30 09:59:50;;;;;;;;;;;;;;;29.17;35.29;99961.13;1086137;39;20191;-78
2022/08/30 10:00:56;;;;;;;;;;;;;;;29.36;35.13;99952.41;1085222;47;19946;-77
2022/08/30 10:02:03;;;;;;;;;;;;;;;29.56;34.98;99952.44;1085961;46;20711;-80
2022/08/30 10:03:14;;;;;;;;;;;;;;;29.69;34.88;99961.28;1086173;54;19950;-79
2022/08/30 10:04:20;;;;;;;;;;;;;;;29.73;34.31;99949.44;1085914;54;20038;-79
2022/08/30 10:05:24;;;;;;;;;;;;;;;29.90;33.95;99953.81;1085617;54;19946;-80
2022/08/30 10:06:30;;;;;;;;;;;;;;;29.91;33.78;99952.72;1086164;54;20081;-82
2022/08/30 10:07:35;;;;;;;;;;;;;;;29.84;33.29;99953.00;1085902;54;19946;-79
2022/08/30 10:08:54;;;;;;;;;;;;;;;29.77;33.62;99951.59;1086143;39;20747;-80
2022/08/30 10:09:59;;;;;;;;;;;;;;;29.53;33.83;99958.47;1085961;54;19945;-80
2022/08/30 10:11:06;;;;;;;;;;;;;;;29.61;34.05;99957.13;1086007;54;19954;-81
2022/08/30 10:12:13;;;;;;;;;;;;;;;29.22;34.28;99958.41;1084997;54;19951;-78
2022/08/30 10:13:35;;;;;;;;;;;;;;;28.96;34.57;99960.25;1085365;54;19962;-78
2022/08/30 10:14:49;;;;;;;;;;;;;;;29.23;34.84;99950.97;1086757;54;19951;-77
2022/08/30 10:15:53;;;;;;;;;;;;;;;29.32;34.03;99948.53;1086251;54;19946;-79
2022/08/30 10:17:01;;;;;;;;;;;;;;;29.10;33.99;99944.06;1085818;54;19970;-79
2022/08/30 10:18:05;;;;;;;;;;;;;;;28.95;34.03;99947.59;1085100;46;20031;-78
2022/08/30 10:19:16;;;;;;;;;;;;;;;28.77;33.96;99952.50;1083812;54;20437;-79
2022/08/30 10:20:20;;;;;;;;;;;;;;;28.81;34.36;99940.97;1085488;54;19964;-78
2022/08/30 10:21:27;;;;;;;;;;;;;;;28.79;34.04;99949.47;1086765;39;20419;-80
2022/08/30 10:22:30;;;;;;;;;;;;;;;29.05;34.15;99944.88;1085176;54;20401;-79
2022/08/30 10:23:35;;;;;;;;;;;;;;;28.93;33.50;99941.53;1086498;54;20006;-77
2022/08/30 10:24:39;;;;;;;;;;;;;;;29.04;33.92;99940.47;1087322;47;19951;-77
2022/08/30 10:25:45;;;;;;;;;;;;;;;28.97;33.43;99939.91;1086632;54;20041;-78
2022/08/30 10:26:49;;;;;;;;;;;;;;;29.09;33.51;99932.25;1085581;54;19946;-81
2022/08/30 10:27:56;;;;;;;;;;;;;;;29.09;33.22;99929.50;1084320;54;19967;-80
2022/08/30 10:29:02;;;;;;;;;;;;;;;29.29;33.26;99933.38;1084817;54;19970;-79
2022/08/30 10:30:09;;;;;;;;;;;;;;;29.39;33.57;99925.16;1084468;54;19945;-79
2022/08/30 10:31:11;;;;;;;;;;;;;;;29.42;33.71;99926.56;1084797;54;20335;-79
2022/08/30 10:32:20;;;;;;;;;;;;;;;29.36;33.04;99927.63;1082948;54;19946;-78
2022/08/30 10:33:24;;;;;;;;;;;;;;;29.44;32.56;99921.59;1084006;54;19969;-81
2022/08/30 10:34:31;;;;;;;;;;;;;;;29.63;32.96;99919.13;1084944;54;19947;-81
2022/08/30 10:35:36;;;;;;;;;;;;;;;29.87;32.15;99918.56;1084919;54;21056;-78
2022/08/30 10:36:42;;;;;;;;;;;;;;;29.71;31.63;99915.81;1087357;31;20413;-81
2022/08/30 10:37:49;;;;;;;;;;;;;;;29.50;31.78;99920.50;1085189;47;20436;-79
2022/08/30 10:38:53;;;;;;;;;;;;;;;29.36;31.84;99925.72;1086626;54;19976;-77
2022/08/30 10:41:11;;;;;;;;;;;;;;;29.29;32.08;99916.03;1086437;54;20729;-79
2022/08/30 10:41:23;;;;;;;;;;;;;;;29.19;31.92;99916.84;1084067;54;20737;-80
2022/08/30 10:42:28;;;;;;;;;;;;;;;29.11;32.15;99919.03;1084271;54;20047;-80
2022/08/30 10:43:32;;;;;;;;;;;;;;;29.20;31.89;99915.72;1086260;39;20333;-81
2022/08/30 10:44:41;;;;;;;;;;;;;;;29.23;31.97;99926.22;1084803;54;20740;-80
2022/08/30 10:45:44;;;;;;;;;;;;;;;29.27;31.67;99919.06;1084339;54;19950;-80
2022/08/30 10:46:54;;;;;;;;;;;;;;;29.36;31.76;99914.72;1084414;54;19962;-80
2022/08/30 10:49:32;;;;;;;;;;;;;;;29.25;31.99;99915.75;1084442;54;19943;-81
2022/08/30 10:50:40;;;;;;;;;;;;;;;29.47;31.48;99906.47;1084346;54;19946;-78
2022/08/30 10:51:53;;;;;;;;;;;;;;;29.46;31.22;99907.56;1086049;39;20469;-79
2022/08/30 10:53:05;;;;;;;;;;;;;;;29.48;31.33;99911.69;1084302;54;19973;-81
2022/08/30 10:54:25;;;;;;;;;;;;;;;29.47;31.26;99906.47;1084914;54;19950;-81
2022/08/30 10:55:49;;;;;;;;;;;;;;;29.56;31.60;99913.88;1083962;54;20544;-79
2022/08/30 10:56:55;;;;;;;;;;;;;;;29.75;31.55;99899.56;1085000;54;19943;-79
2022/08/30 10:58:04;;;;;;;;;;;;;;;29.71;31.84;99907.56;1085684;54;19954;-80
2022/08/30 10:59:05;;;;;;;;;;;;;;;29.56;31.49;99904.81;1083961;54;19950;-79
2022/08/30 11:00:14;;;;;;;;;;;;;;;29.46;31.82;99904.81;1083350;54;19950;-79
2022/08/30 11:01:24;;;;;;;;;;;;;;;29.38;31.96;99903.41;1083496;54;19970;-80
2022/08/30 11:02:36;;;;;;;;;;;;;;;29.42;31.96;99905.34;1084246;54;19950;-80
2022/08/30 11:03:55;;;;;;;;;;;;;;;29.42;32.28;99901.78;1083728;54;19950;-79
2022/08/30 11:05:11;;;;;;;;;;;;;;;29.30;31.88;99902.00;1083000;54;19981;-78
2022/08/30 11:07:53;;;;;;;;;;;;;;;29.18;31.52;99910.50;1081938;54;19958;-78
2022/08/30 11:09:13;;;;;;;;;;;;;;;29.21;31.98;99912.72;1083843;54;19947;-79
2022/08/30 11:10:26;;;;;;;;;;;;;;;29.05;32.02;99903.63;1084218;39;20210;-81
2022/08/30 11:11:34;;;;;;;;;;;;;;;29.08;31.96;99908.56;1085183;39;20727;-82
2022/08/30 11:12:39;;;;;;;;;;;;;;;29.16;31.88;99906.38;1085264;47;20382;-79
2022/08/30 11:13:43;;;;;;;;;;;;;;;29.16;32.27;99914.66;1084040;54;19947;-79
2022/08/30 11:14:45;;;;;;;;;;;;;;;29.05;32.36;99911.88;1084770;54;19950;-79
2022/08/30 11:15:59;;;;;;;;;;;;;;;28.97;32.24;99911.56;1084636;54;19973;-77
2022/08/30 11:17:00;;;;;;;;;;;;;;;29.05;32.28;99905.53;1084127;54;19965;-79
2022/08/30 11:18:06;;;;;;;;;;;;;;;28.99;32.34;99899.22;1084017;54;20030;-78
2022/08/30 11:19:13;;;;;;;;;;;;;;;28.92;32.60;99906.88;1084048;54;19973;-79
2022/08/30 11:20:25;;;;;;;;;;;;;;;28.92;31.84;99901.38;1084444;54;20002;-79
2022/08/30 11:21:31;;;;;;;;;;;;;;;28.82;32.62;99896.69;1084571;54;19950;-79
2022/08/30 11:22:36;;;;;;;;;;;;;;;28.91;32.72;99894.22;1084913;54;20010;-78
2022/08/30 11:23:37;;;;;;;;;;;;;;;28.81;32.21;99895.03;1084558;54;19954;-78
2022/08/30 11:24:56;;;;;;;;;;;;;;;28.75;32.49;99899.66;1084894;54;20002;-79
2022/08/30 11:26:00;;;;;;;;;;;;;;;28.87;32.78;99898.63;1084706;54;19950;-77
2022/08/30 11:27:04;;;;;;;;;;;;;;;28.91;32.48;99896.97;1085496;39;20350;-77
2022/08/30 11:28:07;;;;;;;;;;;;;;;29.06;32.54;99891.50;1085360;54;19975;-77
2022/08/30 11:29:10;;;;;;;;;;;;;;;29.10;32.70;99900.84;1085208;54;20868;-78
2022/08/30 11:30:27;;;;;;;;;;;;;;;29.02;32.23;99889.56;1084475;54;19946;-77
2022/08/30 11:31:35;;;;;;;;;;;;;;;28.97;32.26;99893.16;1085108;54;20076;-77
2022/08/30 11:33:00;;;;;;;;;;;;;;;28.95;32.50;99893.41;1084998;54;19966;-81
2022/08/30 11:34:01;;;;;;;;;;;;;;;28.96;32.73;99888.72;1085175;54;20137;-78
2022/08/30 11:35:06;;;;;;;;;;;;;;;28.91;32.90;99897.81;1085471;54;19946;-79
2022/08/30 11:36:07;;;;;;;;;;;;;;;28.89;32.85;99899.19;1085081;54;20103;-80
2022/08/30 11:37:11;;;;;;;;;;;;;;;28.76;33.01;99887.56;1084895;54;20038;-79
2022/08/30 11:38:16;;;;;;;;;;;;;;;28.72;33.18;99897.44;1084046;54;19950;-76
2022/08/30 11:39:34;;;;;;;;;;;;;;;28.76;32.98;99890.31;1085266;54;20465;-79
2022/08/30 11:40:47;;;;;;;;;;;;;;;28.80;32.92;99890.59;1085690;54;19946;-78
2022/08/30 11:42:08;;;;;;;;;;;;;;;28.81;32.92;99896.94;1085900;47;19950;-79
2022/08/30 11:43:27;;;;;;;;;;;;;;;28.78;33.02;99887.28;1085440;54;20047;-81
2022/08/30 11:44:33;;;;;;;;;;;;;;;28.82;32.80;99898.56;1085164;54;19951;-78
2022/08/30 11:45:51;;;;;;;;;;;;;;;28.83;32.81;99894.72;1085983;54;19966;-78
2022/08/30 11:46:58;;;;;;;;;;;;;;;28.87;32.98;99893.09;1085571;54;19950;-78
2022/08/30 11:48:00;;;;;;;;;;;;;;;28.87;32.98;99895.84;1087091;46;19967;-79